createdAt,value
2018-03-16T00:02:11.920Z,83.07
2018-03-16T00:04:40.314Z,82.64
2018-03-16T00:07:08.737Z,82.56
2018-03-16T00:09:37.269Z,82.03
2018-03-16T00:12:05.636Z,82.52
2018-03-16T00:14:34.015Z,81.88
2018-03-16T00:17:02.418Z,82.38
2018-03-16T00:19:30.833Z,82.56
2018-03-16T00:21:59.231Z,82.31
2018-03-16T00:24:28.391Z,82.48
2018-03-16T00:26:56.813Z,82.74
2018-03-16T00:29:25.439Z,82.94
2018-03-16T00:31:54.187Z,83.13
2018-03-16T00:34:23.347Z,83.06
2018-03-16T00:36:51.820Z,83.28
2018-03-16T00:39:20.232Z,83.13
2018-03-16T00:41:48.616Z,83.01
2018-03-16T00:44:17.073Z,83.08
2018-03-16T00:46:45.467Z,82.63
2018-03-16T00:49:13.980Z,82.81
2018-03-16T00:51:42.364Z,82.93
2018-03-16T00:54:11.523Z,82.94
2018-03-16T00:56:39.900Z,83.00
2018-03-16T00:59:08.303Z,82.79
2018-03-16T01:01:36.711Z,83.27
2018-03-16T01:04:05.909Z,83.09
2018-03-16T01:06:35.078Z,83.31
2018-03-16T01:09:03.533Z,82.82
2018-03-16T01:11:31.991Z,83.09
2018-03-16T01:14:00.390Z,83.41
2018-03-16T01:16:28.787Z,82.99
2018-03-16T01:18:57.166Z,82.98
2018-03-16T01:21:25.725Z,83.23
2018-03-16T01:23:54.108Z,83.16
2018-03-16T01:26:23.261Z,82.90
2018-03-16T01:28:51.643Z,82.75
2018-03-16T01:31:20.036Z,82.60
2018-03-16T01:33:48.446Z,83.33
2018-03-16T01:36:17.588Z,82.73
2018-03-16T01:38:45.919Z,82.42
2018-03-16T01:41:14.287Z,82.85
2018-03-16T01:43:43.419Z,82.49
2018-03-16T01:46:11.855Z,82.97
2018-03-16T01:48:40.251Z,82.70
2018-03-16T01:51:09.491Z,82.75
2018-03-16T01:53:37.876Z,82.97
2018-03-16T01:56:06.432Z,82.93
2018-03-16T01:58:35.572Z,82.62
2018-03-16T02:01:03.976Z,82.99
2018-03-16T02:03:32.363Z,83.62
2018-03-16T02:06:00.782Z,83.59
2018-03-16T02:08:29.155Z,82.38
2018-03-16T02:10:57.581Z,82.30
2018-03-16T02:13:25.983Z,82.54
2018-03-16T02:15:54.360Z,82.66
2018-03-16T02:18:22.735Z,81.59
2018-03-16T02:20:51.142Z,81.33
2018-03-16T02:23:20.293Z,80.69
2018-03-16T02:25:48.669Z,81.60
2018-03-16T02:28:17.262Z,81.41
2018-03-16T02:30:45.648Z,81.53
2018-03-16T02:33:14.047Z,82.29
2018-03-16T02:35:42.444Z,82.22
2018-03-16T02:38:10.851Z,82.45
2018-03-16T02:40:40.018Z,82.54
2018-03-16T02:43:08.407Z,81.89
2018-03-16T02:45:37.600Z,82.02
2018-03-16T02:48:05.988Z,82.83
2018-03-16T02:50:34.388Z,82.58
2018-03-16T02:53:03.551Z,82.38
2018-03-16T02:55:31.999Z,82.53
2018-03-16T02:58:00.367Z,82.31
2018-03-16T03:00:28.762Z,82.63
2018-03-16T03:02:57.144Z,82.57
2018-03-16T03:05:25.579Z,82.97
2018-03-16T03:07:54.081Z,82.84
2018-03-16T03:10:23.223Z,83.05
2018-03-16T03:12:52.506Z,83.49
2018-03-16T03:15:20.999Z,83.09
2018-03-16T03:17:49.380Z,82.93
2018-03-16T03:20:17.763Z,83.29
2018-03-16T03:22:46.160Z,83.41
2018-03-16T03:25:14.559Z,83.60
2018-03-16T03:27:43.699Z,83.62
2018-03-16T03:30:12.163Z,83.77
2018-03-16T03:32:41.319Z,83.68
2018-03-16T03:35:09.716Z,83.61
2018-03-16T03:37:38.155Z,84.00
2018-03-16T03:40:06.551Z,84.13
2018-03-16T03:42:34.948Z,84.24
2018-03-16T03:45:03.330Z,84.51
2018-03-16T03:47:31.706Z,84.94
2018-03-16T03:50:00.855Z,84.83
2018-03-16T03:52:30.008Z,84.93
2018-03-16T03:54:58.383Z,84.64
2018-03-16T03:57:26.803Z,84.97
2018-03-16T03:59:55.303Z,84.51
2018-03-16T04:02:24.478Z,83.63
2018-03-16T04:04:52.832Z,83.65
2018-03-16T04:07:21.330Z,83.41
2018-03-16T04:09:49.861Z,83.73
2018-03-16T04:12:18.347Z,83.82
2018-03-16T04:14:46.752Z,84.57
2018-03-16T04:17:15.122Z,84.17
2018-03-16T04:19:43.503Z,83.37
2018-03-16T04:22:12.238Z,83.36
2018-03-16T04:24:40.627Z,83.38
2018-03-16T04:27:08.999Z,84.05
2018-03-16T04:29:37.387Z,83.47
2018-03-16T04:32:05.845Z,83.26
2018-03-16T04:34:34.221Z,83.34
2018-03-16T04:37:02.624Z,83.76
2018-03-16T04:39:31.031Z,83.08
2018-03-16T04:42:00.178Z,83.90
2018-03-16T04:44:28.549Z,83.37
2018-03-16T04:46:57.062Z,83.63
2018-03-16T04:49:25.599Z,84.09
2018-03-16T04:51:54.219Z,83.75
2018-03-16T04:54:22.624Z,83.83
2018-03-16T04:56:51.020Z,83.30
2018-03-16T04:59:20.178Z,84.31
2018-03-16T05:01:48.558Z,84.47
2018-03-16T05:04:17.116Z,84.34
2018-03-16T05:06:45.488Z,83.78
2018-03-16T05:09:13.884Z,83.53
2018-03-16T05:11:43.025Z,83.71
2018-03-16T05:14:11.544Z,83.99
2018-03-16T05:16:39.952Z,83.34
2018-03-16T05:19:08.327Z,83.73
2018-03-16T05:21:36.851Z,83.87
2018-03-16T05:24:06.219Z,83.71
2018-03-16T05:26:34.595Z,83.28
2018-03-16T05:29:02.976Z,83.71
2018-03-16T05:31:31.374Z,84.09
2018-03-16T05:33:59.848Z,84.04
2018-03-16T05:36:28.237Z,84.68
2018-03-16T05:38:56.611Z,84.20
2018-03-16T05:41:24.989Z,84.25
2018-03-16T05:43:53.436Z,84.14
2018-03-16T05:46:22.674Z,84.26
2018-03-16T05:48:51.208Z,84.46
2018-03-16T05:51:19.599Z,84.75
2018-03-16T05:53:48.245Z,84.60
2018-03-16T05:56:16.617Z,85.10
2018-03-16T05:58:45.038Z,85.35
2018-03-16T06:01:13.648Z,85.54
2018-03-16T06:03:42.225Z,84.90
2018-03-16T06:06:11.462Z,85.08
2018-03-16T06:08:39.859Z,84.88
2018-03-16T06:11:08.245Z,85.26
2018-03-16T06:13:36.667Z,84.86
2018-03-16T06:16:05.912Z,84.61
2018-03-16T06:18:34.407Z,84.54
2018-03-16T06:21:02.827Z,84.38
2018-03-16T06:23:32.176Z,84.12
2018-03-16T06:26:00.557Z,84.14
2018-03-16T06:28:28.943Z,84.02
2018-03-16T06:30:57.355Z,84.30
2018-03-16T06:33:25.922Z,84.94
2018-03-16T06:35:54.498Z,84.98
2018-03-16T06:38:22.911Z,84.83
2018-03-16T06:40:52.098Z,83.47
2018-03-16T06:43:20.557Z,82.23
2018-03-16T06:45:49.056Z,81.76
2018-03-16T06:48:17.464Z,82.29
2018-03-16T06:50:45.853Z,81.62
2018-03-16T06:53:15.168Z,81.38
2018-03-16T06:55:44.323Z,81.61
2018-03-16T06:58:12.716Z,81.26
2018-03-16T07:00:41.101Z,80.48
2018-03-16T07:03:09.486Z,80.95
2018-03-16T07:05:37.986Z,80.39
2018-03-16T07:08:07.205Z,79.57
2018-03-16T07:10:37.304Z,78.85
2018-03-16T07:13:05.705Z,79.23
2018-03-16T07:15:36.707Z,79.21
2018-03-16T07:18:06.021Z,79.02
2018-03-16T07:20:34.396Z,78.29
2018-03-16T07:23:02.791Z,78.83
2018-03-16T07:25:31.240Z,78.85
2018-03-16T07:27:59.779Z,78.79
2018-03-16T07:30:28.982Z,79.33
2018-03-16T07:32:58.432Z,79.04
2018-03-16T07:35:26.828Z,79.21
2018-03-16T07:37:55.501Z,78.68
2018-03-16T07:40:23.850Z,78.76
2018-03-16T07:42:52.473Z,78.88
2018-03-16T07:45:26.225Z,78.48
2018-03-16T07:47:55.394Z,79.10
2018-03-16T07:50:24.003Z,78.85
2018-03-16T07:52:53.148Z,78.85
2018-03-16T07:55:21.519Z,79.24
2018-03-16T07:57:49.904Z,79.20
2018-03-16T08:00:18.324Z,79.34
2018-03-16T08:02:46.761Z,80.84
2018-03-16T08:05:15.352Z,80.17
2018-03-16T08:07:43.732Z,79.72
2018-03-16T08:10:12.185Z,79.83
2018-03-16T08:12:41.565Z,79.83
2018-03-16T08:15:10.007Z,79.62
2018-03-16T08:17:39.204Z,80.02
2018-03-16T08:20:07.591Z,79.94
2018-03-16T08:22:35.998Z,80.09
2018-03-16T08:25:04.376Z,80.45
2018-03-16T08:27:32.748Z,80.24
2018-03-16T08:30:01.211Z,80.17
2018-03-16T08:32:29.698Z,79.24
2018-03-16T08:34:58.130Z,79.50
2018-03-16T08:37:26.545Z,79.38
2018-03-16T08:39:54.927Z,80.40
2018-03-16T08:42:23.453Z,79.83
2018-03-16T08:44:52.006Z,78.48
2018-03-16T08:47:20.456Z,78.54
2018-03-16T08:49:50.114Z,78.20
2018-03-16T08:52:18.511Z,78.37
2018-03-16T08:54:46.983Z,78.73
2018-03-16T08:57:16.263Z,78.02
2018-03-16T08:59:44.674Z,78.79
2018-03-16T09:02:13.251Z,79.06
2018-03-16T09:04:41.827Z,79.01
2018-03-16T09:07:10.234Z,79.39
2018-03-16T09:09:38.631Z,79.06
2018-03-16T09:12:07.031Z,79.48
2018-03-16T09:14:36.217Z,78.79
2018-03-16T09:17:04.619Z,80.17
2018-03-16T09:19:33.762Z,79.48
2018-03-16T09:22:02.231Z,79.36
2018-03-16T09:24:30.602Z,79.00
2018-03-16T09:26:58.989Z,79.54
2018-03-16T09:29:27.462Z,79.03
2018-03-16T09:31:55.879Z,79.17
2018-03-16T09:34:24.303Z,79.19
2018-03-16T09:36:53.531Z,78.85
2018-03-16T09:39:21.979Z,79.27
2018-03-16T09:41:51.136Z,80.23
2018-03-16T09:44:19.688Z,78.19
2018-03-16T09:46:48.084Z,77.96
2018-03-16T09:49:16.515Z,78.59
2018-03-16T09:51:45.720Z,77.71
2018-03-16T09:54:14.883Z,77.91
2018-03-16T09:56:43.299Z,78.70
2018-03-16T09:59:12.452Z,78.72
2018-03-16T10:01:40.851Z,79.72
2018-03-16T10:04:09.265Z,79.86
2018-03-16T10:06:38.415Z,81.79
2018-03-16T10:09:06.858Z,80.31
2018-03-16T10:11:35.993Z,82.37
2018-03-16T10:14:04.429Z,81.22
2018-03-16T10:16:33.734Z,81.66
2018-03-16T10:19:02.882Z,81.87
2018-03-16T10:21:31.337Z,82.50
2018-03-16T10:23:59.715Z,82.75
2018-03-16T10:29:27.452Z,81.49
2018-03-16T10:31:56.619Z,80.61
2018-03-16T10:34:25.058Z,81.26
2018-03-16T10:36:53.432Z,79.69
2018-03-16T10:39:22.571Z,79.16
2018-03-16T10:41:50.980Z,78.74
2018-03-16T10:44:19.384Z,79.20
2018-03-16T10:46:47.771Z,78.04
2018-03-16T10:49:17.041Z,78.25
2018-03-16T10:51:45.451Z,76.52
2018-03-16T10:54:13.917Z,78.42
2018-03-16T10:56:42.340Z,75.81
2018-03-16T10:59:10.732Z,76.72
2018-03-16T11:01:44.660Z,80.31
2018-03-16T11:04:14.354Z,79.50
2018-03-16T11:06:46.110Z,80.25
2018-03-16T11:09:14.572Z,79.13
2018-03-16T11:11:42.960Z,81.57
2018-03-16T11:14:11.443Z,79.96
2018-03-16T11:16:39.887Z,79.14
2018-03-16T11:19:08.324Z,80.20
2018-03-16T11:21:36.928Z,80.12
2018-03-16T11:24:05.362Z,83.08
2018-03-16T11:26:34.495Z,83.90
2018-03-16T11:29:02.912Z,83.98
2018-03-16T11:31:31.294Z,83.29
2018-03-16T11:33:59.689Z,83.08
2018-03-16T11:36:28.131Z,85.04
2018-03-16T11:38:56.631Z,84.71
2018-03-16T11:41:25.007Z,84.86
2018-03-16T11:43:53.415Z,84.82
2018-03-16T11:46:21.951Z,85.16
2018-03-16T11:48:50.376Z,86.13
2018-03-16T11:51:18.824Z,79.88
2018-03-16T11:53:47.312Z,85.52
2018-03-16T11:56:15.729Z,84.90
2018-03-16T11:58:44.978Z,83.86
2018-03-16T12:01:13.405Z,84.65
2018-03-16T12:03:42.202Z,83.13
2018-03-16T12:06:11.383Z,85.11
2018-03-16T12:08:39.809Z,80.81
2018-03-16T12:11:08.309Z,79.08
2018-03-16T12:13:36.706Z,81.09
2018-03-16T12:16:05.940Z,81.42
2018-03-16T12:18:35.191Z,80.75
2018-03-16T12:21:04.585Z,82.54
2018-03-16T12:23:32.999Z,77.44
2018-03-16T12:26:01.786Z,76.04
2018-03-16T12:28:49.306Z,78.00
2018-03-16T12:30:58.681Z,79.39
2018-03-16T12:33:27.079Z,80.86
2018-03-16T12:35:55.692Z,83.11
2018-03-16T12:38:24.174Z,79.77
2018-03-16T12:40:52.562Z,82.30
2018-03-16T12:43:20.955Z,83.95
2018-03-16T12:45:49.376Z,84.52
2018-03-16T12:48:18.544Z,83.92
2018-03-16T12:50:46.978Z,82.65
2018-03-16T12:53:15.371Z,80.96
2018-03-16T12:55:43.789Z,83.88
2018-03-16T12:58:12.423Z,85.56
2018-03-16T13:00:40.831Z,85.04
2018-03-16T13:03:09.247Z,83.89
2018-03-16T13:05:37.886Z,86.00
2018-03-16T13:08:06.376Z,85.67
2018-03-16T13:10:34.756Z,86.33
2018-03-16T13:13:03.169Z,85.04
2018-03-16T13:15:32.328Z,84.78
2018-03-16T13:18:00.756Z,85.75
2018-03-16T13:20:29.168Z,85.99
2018-03-16T13:22:57.558Z,85.24
2018-03-16T13:25:25.978Z,86.05
2018-03-16T13:27:55.120Z,86.65
2018-03-16T13:30:23.540Z,86.77
2018-03-16T13:32:51.977Z,86.57
2018-03-16T13:35:21.127Z,86.37
2018-03-16T13:37:49.543Z,87.89
2018-03-16T13:40:17.957Z,86.30
2018-03-16T13:42:46.558Z,85.97
2018-03-16T13:45:14.943Z,86.93
2018-03-16T13:47:43.334Z,86.94
2018-03-16T13:50:11.883Z,85.47
2018-03-16T13:52:40.537Z,86.30
2018-03-16T13:55:08.940Z,86.29
2018-03-16T13:57:37.351Z,86.77
2018-03-16T14:00:05.859Z,86.94
2018-03-16T14:02:34.348Z,86.24
2018-03-16T14:05:02.801Z,85.92
2018-03-16T14:07:31.222Z,86.21
2018-03-16T14:09:59.766Z,87.80
2018-03-16T14:12:28.268Z,87.20
2018-03-16T14:14:56.801Z,87.79
2018-03-16T14:17:26.087Z,86.59
2018-03-16T14:19:54.527Z,86.98
2018-03-16T14:22:22.976Z,87.77
2018-03-16T14:24:51.397Z,87.53
2018-03-16T14:27:19.859Z,87.53
2018-03-16T14:29:48.311Z,87.25
2018-03-16T14:32:16.749Z,87.78
2018-03-16T14:34:45.131Z,87.15
2018-03-16T14:37:13.512Z,87.70
2018-03-16T14:39:42.126Z,87.48
2018-03-16T14:42:11.321Z,86.72
2018-03-16T14:44:44.879Z,86.43
2018-03-16T14:47:13.366Z,86.36
2018-03-16T14:49:41.763Z,86.75
2018-03-16T14:52:10.171Z,87.02
2018-03-16T14:54:39.382Z,88.06
2018-03-16T14:57:08.708Z,86.37
2018-03-16T14:59:37.067Z,86.36
2018-03-16T15:02:05.463Z,86.25
2018-03-16T15:04:33.891Z,86.35
2018-03-16T15:07:02.552Z,86.79
2018-03-16T15:09:31.012Z,86.30
2018-03-16T15:11:59.480Z,86.71
2018-03-16T15:14:28.653Z,87.11
2018-03-16T15:16:57.094Z,86.77
2018-03-16T15:19:25.665Z,86.60
2018-03-16T15:21:54.086Z,87.42
2018-03-16T15:24:22.532Z,87.18
2018-03-16T15:26:50.993Z,88.63
2018-03-16T15:29:20.248Z,88.43
2018-03-16T15:31:48.675Z,87.94
2018-03-16T15:34:17.932Z,87.57
2018-03-16T15:36:46.488Z,87.43
2018-03-16T15:39:14.978Z,88.58
2018-03-16T15:41:43.380Z,87.55
2018-03-16T15:44:11.831Z,87.80
2018-03-16T15:46:40.403Z,87.67
2018-03-16T15:49:08.824Z,87.90
2018-03-16T15:51:37.207Z,88.38
2018-03-16T15:54:05.643Z,86.97
2018-03-16T15:56:34.823Z,88.86
2018-03-16T15:59:03.209Z,87.27
2018-03-16T16:01:32.473Z,88.72
2018-03-16T16:04:01.052Z,87.80
2018-03-16T16:06:29.445Z,87.05
2018-03-16T16:08:58.007Z,87.38
2018-03-16T16:11:26.447Z,88.10
2018-03-16T16:13:55.642Z,87.15
2018-03-16T16:16:24.112Z,87.44
2018-03-16T16:18:52.516Z,88.08
2018-03-16T16:21:21.799Z,87.93
2018-03-16T16:23:50.253Z,88.39
2018-03-16T16:26:18.670Z,88.83
2018-03-16T16:28:47.139Z,88.47
2018-03-16T16:31:16.367Z,89.11
2018-03-16T16:33:45.607Z,88.13
2018-03-16T16:36:13.999Z,88.39
2018-03-16T16:38:42.400Z,87.20
2018-03-16T16:41:10.797Z,87.96
2018-03-16T16:43:39.411Z,87.73
2018-03-16T16:46:07.804Z,88.37
2018-03-16T16:48:36.189Z,87.65
2018-03-16T16:51:04.583Z,87.09
2018-03-16T16:53:32.969Z,87.27
2018-03-16T16:56:01.349Z,87.94
2018-03-16T16:58:29.790Z,88.57
2018-03-16T17:00:58.962Z,88.35
2018-03-16T17:03:27.518Z,88.02
2018-03-16T17:05:55.931Z,88.00
2018-03-16T17:08:24.307Z,87.86
2018-03-16T17:10:52.697Z,87.62
2018-03-16T17:13:21.078Z,87.88
2018-03-16T17:15:49.589Z,87.99
2018-03-16T17:18:18.174Z,88.50
2018-03-16T17:20:47.400Z,88.08
2018-03-16T17:23:15.786Z,87.74
2018-03-16T17:25:44.373Z,87.91
2018-03-16T17:28:12.774Z,87.07
2018-03-16T17:30:41.164Z,87.00
2018-03-16T17:33:09.698Z,88.35
2018-03-16T17:35:38.375Z,87.36
2018-03-16T17:38:07.575Z,88.02
2018-03-16T17:40:36.103Z,88.35
2018-03-16T17:43:04.771Z,88.17
2018-03-16T17:45:33.172Z,88.01
2018-03-16T17:48:01.601Z,88.48
2018-03-16T17:50:30.754Z,87.29
2018-03-16T17:52:59.260Z,87.46
2018-03-16T17:55:27.640Z,86.60
2018-03-16T17:57:56.008Z,87.92
2018-03-16T18:00:24.398Z,88.20
2018-03-16T18:02:52.959Z,87.67
2018-03-16T18:05:21.467Z,87.94
2018-03-16T18:07:50.729Z,87.50
2018-03-16T18:10:19.152Z,87.05
2018-03-16T18:12:47.548Z,86.92
2018-03-16T18:15:16.752Z,87.22
2018-03-16T18:17:45.203Z,87.39
2018-03-16T18:20:13.556Z,87.76
2018-03-16T18:22:41.954Z,87.17
2018-03-16T18:25:10.375Z,87.13
2018-03-16T18:27:38.783Z,87.02
2018-03-16T18:30:07.916Z,87.06
2018-03-16T18:32:36.318Z,87.86
2018-03-16T18:35:04.772Z,87.40
2018-03-16T18:37:33.145Z,86.96
2018-03-16T18:40:01.630Z,86.50
2018-03-16T18:42:30.963Z,86.77
2018-03-16T18:44:59.355Z,87.74
2018-03-16T18:47:27.782Z,88.30
2018-03-16T18:49:56.965Z,86.55
2018-03-16T18:52:26.143Z,87.21
2018-03-16T18:54:54.561Z,87.84
2018-03-16T18:57:23.180Z,87.61
2018-03-16T18:59:51.677Z,88.14
2018-03-16T19:02:20.112Z,88.56
2018-03-16T19:04:48.508Z,88.80
2018-03-16T19:07:16.892Z,88.94
2018-03-16T19:09:45.331Z,88.22
2018-03-16T19:12:13.684Z,87.13
2018-03-16T19:14:42.179Z,87.23
2018-03-16T19:17:10.567Z,88.49
2018-03-16T19:19:39.015Z,88.81
2018-03-16T19:22:07.658Z,89.16
2018-03-16T19:24:36.872Z,88.80
2018-03-16T19:27:05.329Z,88.96
2018-03-16T19:29:34.511Z,87.88
2018-03-16T19:32:03.678Z,87.51
2018-03-16T19:34:32.082Z,88.36
2018-03-16T19:37:00.464Z,87.57
2018-03-16T19:39:28.893Z,88.62
2018-03-16T19:41:58.028Z,87.79
2018-03-16T19:44:26.513Z,87.64
2018-03-16T19:46:54.980Z,88.67
2018-03-16T19:49:23.414Z,88.83
2018-03-16T19:51:51.808Z,88.89
2018-03-16T19:54:20.992Z,88.35
2018-03-16T19:56:49.430Z,88.62
2018-03-16T19:59:18.642Z,88.37
2018-03-16T20:01:47.052Z,88.35
2018-03-16T20:04:16.048Z,87.97
2018-03-16T20:06:44.484Z,88.05
2018-03-16T20:09:12.920Z,87.83
2018-03-16T20:11:41.367Z,88.33
2018-03-16T20:14:09.778Z,88.67
2018-03-16T20:16:39.016Z,88.83
2018-03-16T20:19:08.636Z,88.39
2018-03-16T20:21:37.085Z,88.53
2018-03-16T20:24:06.321Z,88.59
2018-03-16T20:26:34.722Z,88.01
2018-03-16T20:29:03.144Z,87.83
2018-03-16T20:31:32.391Z,88.09
2018-03-16T20:34:00.810Z,87.77
2018-03-16T20:36:30.107Z,88.32
2018-03-16T20:38:58.537Z,88.80
2018-03-16T20:41:27.097Z,88.36
2018-03-16T20:43:55.562Z,88.11
2018-03-16T20:46:24.111Z,88.59
2018-03-16T20:48:52.641Z,88.60
2018-03-16T20:51:21.052Z,88.97
2018-03-16T20:53:49.545Z,89.06
2018-03-16T20:56:17.943Z,89.18
2018-03-16T20:58:46.464Z,89.50
2018-03-16T21:01:14.902Z,89.29
2018-03-16T21:03:43.325Z,89.79
2018-03-16T21:06:11.800Z,89.37
2018-03-16T21:08:40.258Z,89.60
2018-03-16T21:11:08.690Z,88.81
2018-03-16T21:13:37.969Z,89.24
2018-03-16T21:16:06.514Z,89.12
2018-03-16T21:18:34.922Z,88.96
2018-03-16T21:21:03.522Z,88.03
2018-03-16T21:23:31.968Z,89.24
2018-03-16T21:26:00.461Z,89.51
2018-03-16T21:28:28.907Z,88.79
2018-03-16T21:30:57.285Z,88.31
2018-03-16T21:33:25.839Z,88.89
2018-03-16T21:35:54.748Z,88.63
2018-03-16T21:38:23.992Z,88.06
2018-03-16T21:40:52.402Z,88.07
2018-03-16T21:43:20.843Z,88.78
2018-03-16T21:45:49.993Z,88.93
2018-03-16T21:48:18.440Z,88.41
2018-03-16T21:50:46.877Z,88.80
2018-03-16T21:53:16.043Z,88.02
2018-03-16T21:55:44.516Z,87.74
2018-03-16T21:58:12.891Z,88.45
2018-03-16T22:00:41.362Z,87.77
2018-03-16T22:03:09.762Z,87.85
2018-03-16T22:05:38.156Z,87.96
2018-03-16T22:08:06.617Z,88.48
2018-03-16T22:10:35.029Z,88.23
2018-03-16T22:13:03.629Z,88.42
2018-03-16T22:15:32.215Z,88.96
2018-03-16T22:18:01.356Z,87.98
2018-03-16T22:20:39.688Z,87.26
2018-03-16T22:23:08.153Z,87.90
2018-03-16T22:25:36.689Z,88.33
2018-03-16T22:28:05.880Z,88.16
2018-03-16T22:30:34.275Z,88.03
2018-03-16T22:33:03.461Z,88.79
2018-03-16T22:35:31.859Z,88.64
2018-03-16T22:38:01.031Z,89.14
2018-03-16T22:40:29.420Z,88.93
2018-03-16T22:42:57.806Z,88.19
2018-03-16T22:45:26.945Z,88.55
2018-03-16T22:47:55.338Z,88.28
2018-03-16T22:50:23.787Z,88.46
2018-03-16T22:52:52.934Z,89.02
2018-03-16T22:55:21.312Z,89.00
2018-03-16T22:57:49.729Z,89.50
2018-03-16T23:00:19.758Z,88.20
2018-03-16T23:02:48.923Z,88.26
2018-03-16T23:05:17.339Z,88.31
2018-03-16T23:07:46.494Z,88.47
2018-03-16T23:10:14.925Z,88.07
2018-03-16T23:12:44.057Z,89.46
2018-03-16T23:15:13.359Z,89.05
2018-03-16T23:17:41.773Z,88.43
2018-03-16T23:20:10.179Z,88.91
2018-03-16T23:22:39.357Z,88.77
2018-03-16T23:25:08.610Z,89.48
2018-03-16T23:27:37.019Z,88.84
2018-03-16T23:30:05.415Z,87.88
2018-03-16T23:32:33.783Z,88.60
2018-03-16T23:35:02.220Z,88.52
2018-03-16T23:37:30.883Z,88.59
2018-03-16T23:40:00.096Z,88.09
2018-03-16T23:42:29.271Z,87.79
2018-03-16T23:44:57.666Z,86.76
2018-03-16T23:47:26.912Z,87.82
2018-03-16T23:49:55.305Z,88.53
2018-03-16T23:52:23.824Z,87.18
2018-03-16T23:54:53.160Z,87.38
2018-03-16T23:57:21.525Z,87.95
2018-03-16T23:59:50.676Z,87.31
